Thursday, October 2, 2014, 12:28 PM EDT

KPTB, Petersburg, Dinwiddie County Airport

Location: Petersburg, VA, United States Lat: 37.183
Local Time: 12:28 PM EDT (16:28 GMT) Lon: -77.517
Time Zone: US/Eastern Elev: 193 ft

Show me the last for .
Show Decoded

2014-10-02 12:15 METAR KPTB 021615Z AUTO 25004KT 10SM SCT021 SCT030 SCT046 24/17 A3012 RMK AO2
                 T02360167 =
2014-10-02 11:55 METAR KPTB 021555Z AUTO 22004KT 10SM SCT021 SCT028 BKN039 23/17 A3012 RMK AO2
                 T02330167 =
2014-10-02 11:35 METAR KPTB 021535Z AUTO 24004KT 10SM SCT016 BKN021 OVC038 23/17 A3013 RMK AO2
                 T02310170 =
2014-10-02 11:15 METAR KPTB 021515Z AUTO 00000KT 10SM BKN016 BKN021 OVC029 22/17 A3013 RMK AO2
                 T02220166 =
2014-10-02 10:35 METAR KPTB 021435Z AUTO 20003KT 10SM SCT012 BKN023 22/18 A3013 RMK AO2 T02160175
                 =
2014-10-02 10:15 METAR KPTB 021415Z AUTO 20003KT 10SM SCT012 BKN023 21/18 A3013 RMK AO2 T02100182
                 =
2014-10-02 09:55 METAR KPTB 021355Z AUTO 00000KT 10SM SCT008 21/18 A3013 RMK AO2 T02110183 =
2014-10-02 09:35 METAR KPTB 021335Z AUTO 00000KT 10SM SCT006 BKN027 21/18 A3013 RMK AO2 T02050181
                 =
2014-10-02 09:15 METAR KPTB 021315Z AUTO 00000KT 7SM OVC027 19/18 A3013 RMK AO2 T01910182 =
2014-10-02 08:55 METAR KPTB 021255Z AUTO 00000KT 7SM OVC025 19/18 A3013 RMK AO2 T01890181 =
2014-10-02 08:35 METAR KPTB 021235Z AUTO 00000KT 5SM BR OVC023 19/18 A3013 RMK AO2 T01850180 =
2014-10-02 08:15 METAR KPTB 021215Z AUTO 00000KT 3SM BR BKN020 OVC026 18/18 A3012 RMK AO2
                 T01840177 =
2014-10-02 07:55 METAR KPTB 021155Z AUTO 00000KT 3SM BR OVC020 18/18 A3012 RMK AO2 T01810175
                 10182 20175 =
2014-10-02 07:35 METAR KPTB 021135Z AUTO 00000KT 2 1/2SM BR OVC022 18/17 A3011 RMK AO2 T01800173
                 =
2014-10-02 07:15 METAR KPTB 021115Z AUTO 00000KT 4SM BR OVC022 18/17 A3011 RMK AO2 T01800173 =
2014-10-02 06:55 METAR KPTB 021055Z AUTO 00000KT 4SM BR SCT014 OVC022 18/17 A3011 RMK AO2
                 T01800174 =
2014-10-02 06:35 METAR KPTB 021035Z AUTO 00000KT 5SM BR BKN012 OVC020 18/18 A3011 RMK AO2
                 T01810175 =
2014-10-02 06:15 METAR KPTB 021015Z AUTO 00000KT 10SM OVC010 18/18 A3010 RMK AO2 T01810175 =
2014-10-02 05:55 METAR KPTB 020955Z AUTO 00000KT 7SM BKN008 OVC014 18/18 A3010 RMK AO2 T01810175
                 =
2014-10-02 05:35 METAR KPTB 020935Z AUTO 01003KT 7SM SCT008 BKN014 OVC046 18/18 A3010 RMK AO2
                 T01800175 =
2014-10-02 05:15 METAR KPTB 020915Z AUTO 00000KT 5SM BR SCT024 OVC048 18/17 A3008 RMK AO2
                 T01770171 =
2014-10-02 04:55 METAR KPTB 020855Z AUTO 00000KT 5SM BR SCT025 OVC050 18/17 A3008 RMK AO2
                 T01760170 =
2014-10-02 04:35 METAR KPTB 020835Z AUTO 00000KT 5SM BR SCT027 BKN060 OVC090 18/17 A3008 RMK AO2
                 T01760170 =
2014-10-02 04:15 METAR KPTB 020815Z AUTO 00000KT 5SM BR SCT025 BKN060 OVC080 18/17 A3008 RMK AO2
                 T01760170 =
2014-10-02 03:55 METAR KPTB 020755Z AUTO 00000KT 5SM BR BKN060 OVC070 18/17 A3007 RMK AO2
                 T01790172 =
2014-10-02 03:35 METAR KPTB 020735Z AUTO 00000KT 5SM -RA SCT027 BKN060 OVC070 18/17 A3007 RMK AO2
                 T01770171 =
2014-10-02 02:55 METAR KPTB 020655Z AUTO 00000KT 5SM BR BKN014 OVC060 18/17 A3007 RMK AO2
                 T01770171 =
2014-10-02 02:35 METAR KPTB 020635Z AUTO 00000KT 5SM BR SCT014 OVC060 18/17 A3007 RMK AO2
                 T01770171 =
2014-10-02 01:55 METAR KPTB 020555Z AUTO 00000KT 5SM -DZ SCT027 SCT044 OVC060 18/17 A3007 RMK AO2
                 T01760171 10196 20173 =
2014-10-02 01:35 METAR KPTB 020535Z AUTO 00000KT 5SM BR SCT027 BKN060 OVC075 17/17 A3007 RMK AO2
                 T01740168 =
2014-10-02 01:15 METAR KPTB 020515Z AUTO 00000KT 4SM BR SCT029 BKN075 OVC090 17/17 A3006 RMK AO2
                 T01740167 =
2014-10-02 00:55 METAR KPTB 020455Z AUTO 00000KT 5SM BR SCT029 BKN075 OVC100 18/17 A3006 RMK AO2
                 T01770170 402500120 =
2014-10-02 00:35 METAR KPTB 020435Z AUTO 00000KT 7SM OVC029 18/17 A3006 RMK AO2 T01800172 =
2014-10-02 00:15 METAR KPTB 020415Z AUTO 00000KT 7SM BKN029 OVC070 18/17 A3006 RMK AO2 T01810174
                 =
2014-10-01 23:55 METAR KPTB 020355Z AUTO 00000KT 10SM SCT029 BKN070 OVC100 18/17 A3006 RMK AO2
                 T01820172 =
2014-10-01 23:35 METAR KPTB 020335Z AUTO 00000KT 10SM BKN090 OVC110 18/18 A3006 RMK AO2 T01830175
                 =
2014-10-01 23:15 METAR KPTB 020315Z AUTO 00000KT 10SM BKN080 OVC110 19/18 A3006 RMK AO2 T01850178
                 =
2014-10-01 22:55 METAR KPTB 020255Z AUTO 00000KT 10SM SCT080 OVC110 19/18 A3006 RMK AO2 T01850178
                 =
2014-10-01 22:35 METAR KPTB 020235Z AUTO 00000KT 7SM SCT042 BKN050 OVC110 19/18 A3006 RMK AO2
                 T01850178 =
2014-10-01 22:15 METAR KPTB 020215Z AUTO 00000KT 5SM BR SCT025 BKN042 OVC050 18/18 A3006 RMK AO2
                 T01830177 =
2014-10-01 21:55 METAR KPTB 020155Z AUTO 00000KT 7SM SCT023 BKN042 OVC049 18/18 A3006 RMK AO2
                 T01820176 =
2014-10-01 21:35 METAR KPTB 020135Z AUTO 00000KT 4SM BR OVC043 18/17 A3006 RMK AO2 T01810174 =
2014-10-01 21:15 METAR KPTB 020115Z AUTO 00000KT 3SM BR BKN043 BKN110 18/17 A3005 RMK AO2
                 T01800172 =
2014-10-01 20:55 METAR KPTB 020055Z AUTO 00000KT 7SM BKN110 19/18 A3004 RMK AO2 T01880176 =
2014-10-01 20:35 METAR KPTB 020035Z AUTO 04003KT 7SM SCT049 OVC100 19/18 A3003 RMK AO2 T01920182
                 =
2014-10-01 20:15 METAR KPTB 020015Z AUTO 08003KT 10SM SCT030 BKN043 OVC049 20/18 A3003 RMK AO2
                 T01950181 =
2014-10-01 19:55 METAR KPTB 012355Z AUTO 07004KT 7SM RA BKN032 OVC037 20/18 A3003 RMK AO2
                 T01970178 10250 20197 =
2014-10-01 19:35 METAR KPTB 012335Z AUTO 08006KT 10SM -RA BKN032 OVC041 21/17 A3002 RMK AO2
                 T02060170 =
2014-10-01 19:15 METAR KPTB 012315Z AUTO 05005KT 10SM BKN045 OVC100 21/17 A3001 RMK AO2 T02100165
                 =
2014-10-01 18:55 METAR KPTB 012255Z AUTO 06006KT 10SM SCT032 BKN047 OVC100 21/16 A3001 RMK AO2
                 T02140164 =
2014-10-01 18:35 METAR KPTB 012235Z AUTO 00000KT 10SM SCT049 BKN110 21/19 A3000 RMK AO2 T02050185
                 =
2014-10-01 17:55 METAR KPTB 012155Z AUTO 24003KT 7SM SCT100 24/16 A2999 RMK AO2 T02360161 =
2014-10-01 17:35 METAR KPTB 012135Z AUTO 24003KT 10SM CLR 25/15 A2999 RMK AO2 T02450154 =
2014-10-01 17:15 METAR KPTB 012115Z AUTO 23003KT 10SM CLR 24/16 A2999 RMK AO2 T02440157 =
2014-10-01 16:55 METAR KPTB 012055Z AUTO 22003KT 10SM CLR 24/15 A2999 RMK AO2 T02420154 =
2014-10-01 16:35 METAR KPTB 012035Z AUTO 22004KT 10SM CLR 25/16 A2999 RMK AO2 T02470157 =
2014-10-01 16:15 METAR KPTB 012015Z AUTO 23004KT 10SM CLR 25/16 A2999 RMK AO2 T02450160 =
2014-10-01 15:55 METAR KPTB 011955Z AUTO 22006KT 10SM SCT029 SCT033 SCT039 25/16 A2999 RMK AO2
                 T02470159 =
2014-10-01 15:35 METAR KPTB 011935Z AUTO 22005KT 10SM BKN029 OVC038 24/16 A3000 RMK AO2 T02400161
                 =
2014-10-01 15:15 METAR KPTB 011915Z AUTO 25006KT 10SM BKN029 OVC090 25/16 A2999 RMK AO2 T02500162
                 =
2014-10-01 14:55 METAR KPTB 011855Z AUTO 22004KT 10SM OVC090 24/16 A3000 RMK AO2 T02430159 =
2014-10-01 14:35 METAR KPTB 011835Z AUTO 00000KT 10SM SCT029 BKN042 OVC095 24/16 A3000 RMK AO2
                 T02410161 =
2014-10-01 14:15 METAR KPTB 011815Z AUTO 33003KT 10SM BKN029 BKN034 OVC042 24/16 A3000 RMK AO2
                 T02370155 =
2014-10-01 13:55 METAR KPTB 011755Z AUTO 00000KT 10SM SCT029 BKN034 BKN049 24/15 A3000 RMK AO2
                 T02390153 10240 20146 =
2014-10-01 13:35 METAR KPTB 011735Z AUTO 00000KT 10SM SCT025 BKN048 BKN055 24/16 A3001 RMK AO2
                 T02390160 =
2014-10-01 13:15 METAR KPTB 011715Z AUTO 24003KT 10SM BKN025 OVC040 24/16 A3002 RMK AO2 T02360163
                 =
2014-10-01 12:55 METAR KPTB 011655Z AUTO 30003KT 10SM SCT022 BKN027 OVC041 23/16 A3002 RMK AO2
                 T02330162 =
2014-10-01 12:35 METAR KPTB 011635Z AUTO 00000KT 10SM SCT020 BKN035 BKN041 23/17 A3003 RMK AO2
                 T02250165 =

Support USWX by starting your Amazon purchase here.